Time;durP1;ratioP1;P1;durP2;ratioP2;P2;SDS_P1;SDS_P2;PMS_P1;PMS_P2;Temp;Humidity;BMP_temperature;BMP_pressure;BME280_temperature;BME280_humidity;BME280_pressure;Samples;Min_cycle;Max_cycle;Signal;HPM_P1;HPM_P2
2023/10/03 06:35:22;;;;;;;16.08;6.68;;;;;;;21.45;55.55;96624.19;2100144;27;20601;-72
2023/10/03 06:37:51;;;;;;;16.52;6.10;;;;;;;21.91;54.92;96632.53;2097634;27;20562;-71
2023/10/03 06:38:53;;;;;;;19.15;7.35;;;;;;;22.14;54.46;96627.78;2090298;28;20192;-71
2023/10/03 06:39:54;;;;;;;16.02;6.60;;;;;;;22.26;54.39;96632.91;2089014;28;20204;-71
2023/10/03 06:40:56;;;;;;;15.95;6.35;;;;;;;22.17;53.82;96624.00;2091304;28;20193;-71
2023/10/03 06:41:58;;;;;;;14.48;6.35;;;;;;;22.06;54.22;96624.97;2086163;28;20204;-71
2023/10/03 06:43:00;;;;;;;12.52;6.43;;;;;;;22.32;53.99;96632.34;2085779;28;20239;-71
2023/10/03 06:44:02;;;;;;;11.93;6.35;;;;;;;22.07;54.46;96625.81;2092924;28;20199;-71
2023/10/03 06:45:04;;;;;;;17.08;7.22;;;;;;;22.26;53.08;96628.47;2094170;28;20192;-71
2023/10/03 06:46:06;;;;;;;11.73;6.13;;;;;;;22.46;53.34;96625.78;2091357;28;20590;-71
2023/10/03 06:47:08;;;;;;;13.00;5.55;;;;;;;22.33;53.67;96621.59;2089828;28;20200;-71
2023/10/03 06:48:10;;;;;;;17.83;6.60;;;;;;;22.41;53.20;96625.38;2092094;28;20219;-71
2023/10/03 06:49:14;;;;;;;14.50;6.90;;;;;;;22.45;53.49;96630.28;2090563;28;20200;-71
2023/10/03 06:50:17;;;;;;;15.32;6.03;;;;;;;22.54;53.06;96628.59;2094372;28;20200;-71
2023/10/03 06:51:18;;;;;;;14.35;6.38;;;;;;;22.59;53.35;96623.66;2088212;28;20200;-71
2023/10/03 06:52:20;;;;;;;14.18;6.93;;;;;;;22.83;52.76;96633.00;2095079;28;20207;-71
2023/10/03 06:53:23;;;;;;;15.60;6.60;;;;;;;23.22;52.15;96630.16;2089747;28;20225;-71
2023/10/03 06:54:24;;;;;;;12.75;6.20;;;;;;;23.53;51.74;96631.66;2093795;28;20191;-71
2023/10/03 06:55:26;;;;;;;12.73;5.88;;;;;;;23.62;51.36;96631.63;2091704;28;20555;-71
2023/10/03 06:56:32;;;;;;;12.48;5.95;;;;;;;23.80;51.20;96628.94;2090325;28;20203;-71
2023/10/03 06:57:33;;;;;;;12.68;6.50;;;;;;;23.91;51.25;96629.75;2089533;28;20300;-71
2023/10/03 06:58:35;;;;;;;12.80;5.80;;;;;;;23.74;51.12;96634.06;2083842;28;20205;-71
2023/10/03 06:59:36;;;;;;;15.02;6.60;;;;;;;23.82;50.51;96634.16;2083636;28;20201;-71
2023/10/03 07:00:39;;;;;;;14.10;6.97;;;;;;;24.28;50.02;96634.91;2086893;28;20214;-71
2023/10/03 07:01:41;;;;;;;15.60;5.80;;;;;;;24.01;49.98;96635.88;2090784;28;20196;-71
2023/10/03 07:02:42;;;;;;;14.48;6.53;;;;;;;24.22;50.44;96629.38;2089265;28;20668;-71
2023/10/03 07:03:44;;;;;;;12.90;6.05;;;;;;;24.50;49.94;96635.41;2084998;28;20844;-71
2023/10/03 07:04:47;;;;;;;13.00;6.57;;;;;;;24.49;49.28;96630.22;2087313;28;20231;-71
2023/10/03 07:05:48;;;;;;;16.52;6.65;;;;;;;24.44;49.50;96630.69;2079454;28;20251;-71
2023/10/03 07:06:50;;;;;;;12.90;6.13;;;;;;;24.56;49.57;96631.28;2088052;28;20223;-71
2023/10/03 07:07:53;;;;;;;15.80;5.93;;;;;;;24.25;49.96;96629.91;2084109;28;20644;-71
2023/10/03 07:08:55;;;;;;;15.27;6.32;;;;;;;24.15;50.35;96629.16;2085435;28;20201;-71
2023/10/03 07:09:57;;;;;;;13.13;6.28;;;;;;;24.20;50.31;96629.53;2088876;28;20204;-71
2023/10/03 07:10:58;;;;;;;11.25;5.68;;;;;;;24.07;50.87;96634.41;2089735;28;20200;-71
2023/10/03 07:12:00;;;;;;;14.25;7.35;;;;;;;24.42;50.08;96625.50;2093880;28;20252;-71
2023/10/03 07:13:02;;;;;;;12.25;5.93;;;;;;;24.60;49.57;96625.44;2092188;28;20220;-71
2023/10/03 07:14:04;;;;;;;18.15;7.28;;;;;;;24.69;50.14;96629.03;2090643;28;20215;-71
2023/10/03 07:15:11;;;;;;;11.70;5.78;;;;;;;24.87;49.29;96631.66;2089276;28;20203;-71
2023/10/03 07:16:13;;;;;;;13.38;5.78;;;;;;;24.64;49.98;96634.03;2089275;28;20264;-71
2023/10/03 07:17:15;;;;;;;22.35;6.72;;;;;;;24.74;49.71;96631.25;2086295;28;20559;-71
2023/10/03 07:18:17;;;;;;;17.15;5.75;;;;;;;24.54;50.30;96642.09;2085966;28;20231;-71
2023/10/03 07:19:21;;;;;;;16.75;5.80;;;;;;;24.61;50.22;96626.31;2087735;28;20614;-71
2023/10/03 07:20:22;;;;;;;14.95;6.88;;;;;;;24.48;50.20;96632.06;2091689;28;20231;-71
2023/10/03 07:21:24;;;;;;;13.88;6.40;;;;;;;24.28;50.40;96634.09;2095581;28;20203;-71
2023/10/03 07:22:26;;;;;;;15.27;6.95;;;;;;;23.80;51.70;96630.78;2086556;28;20281;-71
2023/10/03 07:23:28;;;;;;;11.43;6.07;;;;;;;23.59;52.56;96634.59;2079942;28;20708;-71
2023/10/03 07:24:30;;;;;;;18.38;6.50;;;;;;;23.36;52.84;96639.47;2088758;28;20204;-71
2023/10/03 07:25:32;;;;;;;13.98;6.50;;;;;;;23.87;52.23;96626.53;2088872;28;20196;-71
2023/10/03 07:26:34;;;;;;;14.43;6.13;;;;;;;23.99;52.03;96631.69;2090291;28;20248;-71
2023/10/03 07:27:36;;;;;;;13.63;6.80;;;;;;;24.32;51.87;96630.09;2087239;28;20275;-71
2023/10/03 07:28:38;;;;;;;12.60;6.05;;;;;;;24.64;50.43;96626.00;2083724;28;20197;-71
2023/10/03 07:29:42;;;;;;;11.98;6.22;;;;;;;25.13;50.28;96622.78;2087793;28;20292;-71
2023/10/03 07:30:45;;;;;;;13.00;6.07;;;;;;;25.14;49.65;96619.09;2084308;28;20215;-71
2023/10/03 07:31:48;;;;;;;13.13;5.90;;;;;;;25.19;49.88;96624.81;2089611;28;20720;-71
2023/10/03 07:32:49;;;;;;;14.30;6.03;;;;;;;25.45;49.44;96620.41;2088014;28;20237;-71
2023/10/03 07:33:52;;;;;;;11.68;6.03;;;;;;;25.52;49.33;96627.63;2087420;28;20188;-71
2023/10/03 07:34:53;;;;;;;12.95;6.20;;;;;;;25.73;48.79;96629.00;2089763;28;20240;-71
2023/10/03 07:35:56;;;;;;;12.55;5.43;;;;;;;25.67;48.73;96625.13;2088401;28;20607;-71
2023/10/03 07:36:59;;;;;;;13.93;6.30;;;;;;;25.70;48.81;96631.97;2089095;28;20201;-71
2023/10/03 07:38:00;;;;;;;13.23;5.55;;;;;;;26.09;48.62;96623.38;2092776;28;20254;-71
2023/10/03 07:39:02;;;;;;;13.75;5.75;;;;;;;25.82;48.59;96628.00;2085346;28;20201;-71
2023/10/03 07:40:06;;;;;;;10.75;5.57;;;;;;;26.11;48.01;96626.72;2090906;28;20200;-71
2023/10/03 07:41:13;;;;;;;11.77;5.93;;;;;;;26.42;48.06;96627.88;2089580;28;20196;-71
2023/10/03 07:42:15;;;;;;;12.52;6.25;;;;;;;26.29;47.60;96631.91;2088840;28;20671;-71
2023/10/03 07:43:17;;;;;;;10.00;5.70;;;;;;;26.34;47.81;96626.06;2087039;28;20224;-71
2023/10/03 07:44:19;;;;;;;14.00;5.20;;;;;;;26.01;48.30;96634.06;2083832;28;20304;-71
2023/10/03 07:45:21;;;;;;;11.00;5.10;;;;;;;25.57;48.94;96624.44;2086848;28;20240;-71
2023/10/03 07:46:25;;;;;;;12.90;5.13;;;;;;;25.46;49.33;96627.41;2094063;28;20200;-71
2023/10/03 07:47:27;;;;;;;12.95;5.38;;;;;;;25.72;49.22;96627.31;2091765;28;20207;-71
2023/10/03 07:48:29;;;;;;;10.48;6.53;;;;;;;25.73;49.73;96624.47;2088466;28;20228;-71
2023/10/03 07:49:31;;;;;;;12.95;5.60;;;;;;;25.73;49.35;96627.16;2084656;28;20234;-71
2023/10/03 07:50:40;;;;;;;11.85;6.43;;;;;;;25.89;49.12;96637.03;2078028;28;20204;-71
2023/10/03 07:51:42;;;;;;;10.80;5.70;;;;;;;26.15;49.09;96629.91;2083637;28;20289;-71
2023/10/03 07:52:48;;;;;;;16.73;6.18;;;;;;;26.47;48.52;96637.06;2080261;28;20197;-71
2023/10/03 07:53:55;;;;;;;10.63;5.72;;;;;;;26.29;48.77;96628.41;2080502;28;20243;-71
2023/10/03 07:54:57;;;;;;;13.57;6.38;;;;;;;26.14;49.21;96629.06;2076433;28;20190;-71
2023/10/03 07:55:59;;;;;;;12.27;6.05;;;;;;;26.58;48.43;96630.53;2077252;28;20248;-71
2023/10/03 07:57:04;;;;;;;13.55;5.50;;;;;;;26.76;48.46;96627.69;2083082;28;20242;-71
2023/10/03 07:58:07;;;;;;;12.82;5.32;;;;;;;25.97;49.57;96633.53;2087833;28;20672;-71
2023/10/03 07:59:08;;;;;;;12.57;5.43;;;;;;;25.95;50.04;96629.34;2085989;28;20201;-72
2023/10/03 08:00:12;;;;;;;13.02;5.30;;;;;;;25.98;49.99;96634.38;2080471;28;20262;-70
2023/10/03 08:01:14;;;;;;;11.43;5.57;;;;;;;26.39;49.14;96631.75;2082957;28;20197;-69
2023/10/03 08:02:16;;;;;;;19.00;6.22;;;;;;;26.68;48.34;96641.09;2079474;28;20209;-69
2023/10/03 08:03:19;;;;;;;12.95;5.95;;;;;;;26.31;49.27;96629.91;2077798;28;20235;-69
2023/10/03 08:04:21;;;;;;;12.32;5.68;;;;;;;26.29;49.07;96636.44;2079554;28;20250;-69
2023/10/03 08:05:27;;;;;;;11.02;5.80;;;;;;;26.51;49.20;96622.38;2080215;28;20197;-69
2023/10/03 08:06:33;;;;;;;14.82;6.43;;;;;;;26.84;48.46;96616.13;2081218;28;20687;-69
2023/10/03 08:07:37;;;;;;;11.25;5.43;;;;;;;26.94;48.23;96634.69;2081522;28;20197;-69
2023/10/03 08:08:39;;;;;;;11.35;5.97;;;;;;;26.94;48.45;96630.16;2084996;28;20606;-69
2023/10/03 08:09:46;;;;;;;10.70;5.70;;;;;;;26.63;49.19;96628.19;2080805;28;20221;-69
2023/10/03 08:10:49;;;;;;;10.00;5.10;;;;;;;26.27;49.94;96633.06;2086334;28;20281;-69
2023/10/03 08:11:52;;;;;;;10.98;5.50;;;;;;;25.70;51.63;96630.16;2085368;28;20209;-69
2023/10/03 08:12:53;;;;;;;9.73;5.93;;;;;;;25.36;52.33;96625.72;2085381;28;20229;-69
2023/10/03 08:13:59;;;;;;;10.52;5.43;;;;;;;25.08;53.16;96628.59;2084669;28;20556;-69
2023/10/03 08:15:02;;;;;;;13.40;5.70;;;;;;;24.78;53.94;96629.94;2082549;28;20204;-69
2023/10/03 08:16:03;;;;;;;11.85;6.32;;;;;;;24.62;54.19;96634.16;2080604;28;20188;-69
2023/10/03 08:17:05;;;;;;;18.33;6.00;;;;;;;24.54;54.38;96636.75;2079562;28;20197;-69
2023/10/03 08:18:17;;;;;;;12.15;5.57;;;;;;;24.53;54.78;96620.91;2080760;28;20226;-69
2023/10/03 08:19:25;;;;;;;14.75;5.55;;;;;;;24.49;55.09;96631.03;2081658;28;20204;-69
2023/10/03 08:20:28;;;;;;;15.00;5.55;;;;;;;24.36;55.29;96617.28;2081980;28;20208;-69
2023/10/03 08:21:29;;;;;;;11.07;5.22;;;;;;;24.35;54.99;96626.28;2085273;28;20753;-69
2023/10/03 08:22:31;;;;;;;11.57;5.28;;;;;;;24.32;55.31;96622.09;2084999;28;20236;-69
2023/10/03 08:23:33;;;;;;;15.20;5.40;;;;;;;24.22;55.32;96624.84;2084958;28;20224;-69
2023/10/03 08:24:34;;;;;;;14.32;6.25;;;;;;;24.17;55.81;96626.31;2082463;28;20713;-69
2023/10/03 08:25:36;;;;;;;14.73;5.03;;;;;;;24.18;55.48;96625.34;2081633;28;20212;-69
2023/10/03 08:26:37;;;;;;;14.07;5.22;;;;;;;24.14;55.52;96630.13;2083270;28;20197;-69
2023/10/03 08:27:39;;;;;;;9.85;4.97;;;;;;;24.21;55.53;96630.34;2082187;28;20204;-69
2023/10/03 08:28:40;;;;;;;9.90;5.40;;;;;;;24.28;55.01;96629.56;2081385;28;20703;-69
2023/10/03 08:29:42;;;;;;;10.70;5.47;;;;;;;24.38;54.86;96631.28;2079889;28;20627;-69
2023/10/03 08:30:44;;;;;;;11.65;5.60;;;;;;;24.48;55.03;96621.38;2082162;28;20253;-69
2023/10/03 08:31:46;;;;;;;17.42;7.00;;;;;;;24.33;55.03;96630.94;2082465;28;20197;-69
2023/10/03 08:32:49;;;;;;;12.00;5.68;;;;;;;24.39;55.17;96627.63;2082986;28;20198;-69
2023/10/03 08:33:55;;;;;;;10.35;5.05;;;;;;;24.41;55.10;96625.66;2083116;28;20237;-69
2023/10/03 08:34:57;;;;;;;8.57;5.35;;;;;;;24.32;55.26;96631.94;2084524;28;20283;-69
2023/10/03 08:35:58;;;;;;;12.48;5.90;;;;;;;24.44;54.95;96620.00;2084317;28;20632;-69
2023/10/03 08:37:00;;;;;;;18.17;6.40;;;;;;;24.39;54.89;96614.31;2082090;28;20200;-68
2023/10/03 08:38:06;;;;;;;13.57;5.78;;;;;;;24.52;54.67;96629.91;2080278;28;20432;-69
2023/10/03 08:39:14;;;;;;;10.50;5.50;;;;;;;24.66;54.84;96623.19;2081308;28;20330;-69
2023/10/03 08:40:22;;;;;;;9.45;5.00;;;;;;;24.69;54.74;96633.56;2083803;28;20286;-69
2023/10/03 08:41:46;;;;;;;11.55;5.72;;;;;;;24.59;54.24;96631.81;2081767;28;20219;-69
2023/10/03 08:42:52;;;;;;;16.52;5.22;;;;;;;24.68;54.36;96635.38;2080371;28;20219;-69
2023/10/03 08:43:55;;;;;;;12.23;6.13;;;;;;;24.65;54.38;96626.88;2081383;28;20276;-69
2023/10/03 08:45:16;;;;;;;14.75;5.80;;;;;;;24.83;53.97;96640.16;2083065;28;20874;-69
2023/10/03 08:46:18;;;;;;;15.02;5.80;;;;;;;24.80;53.95;96640.44;2081646;28;20283;-69
2023/10/03 08:47:23;;;;;;;11.95;6.10;;;;;;;25.01;53.75;96637.41;2080779;28;20753;-69
2023/10/03 08:48:27;;;;;;;14.27;6.25;;;;;;;25.07;53.78;96642.94;2078096;28;20554;-69
2023/10/03 08:49:38;;;;;;;14.82;5.93;;;;;;;25.02;53.76;96641.75;2080979;28;20625;-69
2023/10/03 08:50:46;;;;;;;12.02;5.85;;;;;;;24.80;53.62;96646.63;2081587;28;20202;-69
2023/10/03 08:51:51;;;;;;;18.00;5.65;;;;;;;24.74;54.17;96639.25;2080018;28;20588;-69
2023/10/03 08:52:52;;;;;;;17.40;6.88;;;;;;;24.74;54.26;96636.59;2077933;28;20201;-69
2023/10/03 08:54:08;;;;;;;14.63;6.75;;;;;;;24.65;54.15;96637.53;2082066;28;20190;-69
2023/10/03 08:55:10;;;;;;;13.98;6.22;;;;;;;24.70;54.69;96632.56;2079186;28;20625;-69
2023/10/03 08:56:17;;;;;;;14.60;6.22;;;;;;;24.68;54.72;96634.53;2079467;28;20220;-69
2023/10/03 08:57:23;;;;;;;17.23;6.07;;;;;;;24.56;54.11;96625.94;2077616;28;20197;-69
2023/10/03 08:58:26;;;;;;;12.30;5.25;;;;;;;24.44;54.18;96631.53;2080891;28;20294;-69
2023/10/03 08:59:30;;;;;;;12.15;5.55;;;;;;;24.40;54.42;96638.16;2082571;28;20294;-69
2023/10/03 09:00:40;;;;;;;13.75;5.93;;;;;;;24.48;54.45;96636.53;2077973;28;20211;-69
2023/10/03 09:01:45;;;;;;;12.35;5.40;;;;;;;24.66;53.69;96625.84;2079309;28;20335;-69
2023/10/03 09:02:47;;;;;;;13.57;4.70;;;;;;;24.90;53.65;96636.69;2081174;28;20200;-69
2023/10/03 09:03:58;;;;;;;14.40;6.30;;;;;;;24.91;53.32;96626.81;2081364;28;20572;-69
2023/10/03 09:05:15;;;;;;;10.60;5.63;;;;;;;24.92;52.84;96634.69;2080103;28;20205;-69
2023/10/03 09:06:20;;;;;;;10.30;4.93;;;;;;;24.73;53.52;96630.41;2079856;28;20420;-69
2023/10/03 09:07:23;;;;;;;12.10;5.85;;;;;;;24.72;53.55;96627.88;2081588;28;20204;-69
2023/10/03 09:08:26;;;;;;;12.93;6.28;;;;;;;25.04;53.08;96624.56;2080284;28;20260;-69
2023/10/03 09:09:31;;;;;;;15.68;6.18;;;;;;;25.18;52.51;96631.13;2082018;28;20277;-69
2023/10/03 09:10:34;;;;;;;15.75;5.90;;;;;;;24.84;53.05;96629.31;2082065;28;20543;-69
2023/10/03 09:11:37;;;;;;;15.75;5.78;;;;;;;24.90;53.29;96634.00;2081142;28;20192;-69
2023/10/03 09:12:42;;;;;;;12.18;5.43;;;;;;;24.87;53.22;96641.50;2081905;28;20200;-68
2023/10/03 09:13:47;;;;;;;23.90;6.07;;;;;;;25.07;52.74;96632.25;2082195;28;20252;-69
2023/10/03 09:14:53;;;;;;;11.52;5.07;;;;;;;25.06;52.39;96635.09;2083542;28;20188;-69
2023/10/03 09:16:08;;;;;;;9.80;4.60;;;;;;;24.85;52.92;96641.66;2085075;28;20204;-68
2023/10/03 09:17:21;;;;;;;11.30;5.93;;;;;;;25.24;52.48;96630.50;2082000;28;20211;-69
2023/10/03 09:18:25;;;;;;;9.23;5.30;;;;;;;25.26;52.51;96641.03;2080608;28;20316;-69
2023/10/03 09:19:44;;;;;;;12.85;5.38;;;;;;;25.09;52.45;96626.78;2079759;28;20533;-69
2023/10/03 09:20:46;;;;;;;12.50;5.38;;;;;;;25.27;52.45;96632.00;2077923;28;20273;-69
2023/10/03 09:21:51;;;;;;;9.63;5.13;;;;;;;25.35;51.94;96633.88;2077219;28;20564;-68
2023/10/03 09:23:05;;;;;;;11.05;5.15;;;;;;;25.19;52.32;96634.63;2075884;28;20546;-68
2023/10/03 09:24:09;;;;;;;12.85;5.72;;;;;;;25.05;52.31;96641.41;2081064;28;20265;-69
2023/10/03 09:25:11;;;;;;;17.50;6.28;;;;;;;25.18;51.86;96631.13;2079904;28;20624;-69
2023/10/03 09:26:17;;;;;;;10.20;5.00;;;;;;;25.68;51.15;96625.97;2080008;28;20197;-69
2023/10/03 09:27:18;;;;;;;12.95;5.85;;;;;;;26.10;50.78;96637.59;2075642;28;20201;-69
2023/10/03 09:28:27;;;;;;;9.40;5.30;;;;;;;26.92;48.60;96632.19;2076150;28;20750;-69
2023/10/03 09:29:32;;;;;;;13.25;4.97;;;;;;;27.66;47.72;96633.75;2081364;28;20228;-69
2023/10/03 09:30:38;;;;;;;9.73;5.50;;;;;;;28.11;46.90;96624.09;2085485;28;20580;-69
2023/10/03 09:31:41;;;;;;;19.77;5.05;;;;;;;27.38;48.26;96626.16;2080855;28;20197;-69
2023/10/03 09:32:48;;;;;;;9.75;5.57;;;;;;;26.86;49.27;96624.84;2078733;28;20289;-69
2023/10/03 09:33:50;;;;;;;11.52;4.90;;;;;;;26.64;49.45;96624.50;2081683;28;20230;-69
2023/10/03 09:34:57;;;;;;;21.42;5.72;;;;;;;26.62;49.08;96623.00;2083641;28;20189;-69
2023/10/03 09:36:02;;;;;;;10.82;5.55;;;;;;;26.80;48.85;96622.84;2081986;28;20710;-69
2023/10/03 09:37:03;;;;;;;11.32;5.13;;;;;;;26.40;50.01;96623.53;2080196;28;20197;-68
2023/10/03 09:38:14;;;;;;;19.75;5.10;;;;;;;26.15;50.27;96613.84;2077701;28;20236;-69
2023/10/03 09:39:21;;;;;;;9.82;5.13;;;;;;;25.72;51.13;96621.97;2084146;28;20652;-69
2023/10/03 09:40:23;;;;;;;8.85;4.70;;;;;;;25.50;51.40;96615.41;2084149;28;20680;-69
2023/10/03 09:41:26;;;;;;;8.20;4.95;;;;;;;25.52;51.73;96627.63;2080219;28;20192;-69
2023/10/03 09:42:32;;;;;;;14.30;5.72;;;;;;;25.49;51.67;96619.09;2083877;28;20197;-69
2023/10/03 09:43:35;;;;;;;11.88;5.50;;;;;;;25.56;51.67;96617.41;2084075;28;20633;-69
2023/10/03 09:44:37;;;;;;;11.75;5.35;;;;;;;25.57;51.81;96611.06;2085910;28;20196;-69
2023/10/03 09:45:39;;;;;;;16.75;4.93;;;;;;;25.45;52.41;96605.22;2080305;28;20229;-69
2023/10/03 09:46:41;;;;;;;12.60;6.13;;;;;;;25.47;52.28;96615.72;2078913;28;20194;-69
2023/10/03 09:47:44;;;;;;;10.27;4.53;;;;;;;25.55;52.14;96608.56;2077057;28;20233;-69
2023/10/03 09:48:51;;;;;;;8.98;5.18;;;;;;;25.63;52.30;96602.41;2077699;28;20194;-69
2023/10/03 09:50:03;;;;;;;19.15;5.45;;;;;;;25.66;51.87;96602.09;2077469;28;20230;-69
2023/10/03 09:51:05;;;;;;;11.15;4.90;;;;;;;25.66;51.87;96610.09;2086753;28;20205;-69
2023/10/03 09:52:09;;;;;;;8.50;4.90;;;;;;;25.57;52.00;96611.06;2087592;28;20201;-69
2023/10/03 09:53:16;;;;;;;9.82;4.40;;;;;;;25.52;52.33;96602.72;2078622;28;20224;-69
2023/10/03 09:54:30;;;;;;;14.85;5.25;;;;;;;25.51;52.46;96603.69;2078349;28;20200;-69
2023/10/03 09:55:41;;;;;;;12.05;5.30;;;;;;;25.55;52.77;96599.72;2081218;28;20196;-69
2023/10/03 09:56:50;;;;;;;14.40;5.30;;;;;;;25.58;52.46;96600.25;2083112;28;20239;-69
2023/10/03 09:57:59;;;;;;;10.00;5.20;;;;;;;25.84;52.33;96603.75;2084064;28;20203;-69
2023/10/03 09:59:00;;;;;;;8.88;4.70;;;;;;;25.88;51.60;96597.09;2083330;28;20239;-70
2023/10/03 10:00:04;;;;;;;9.43;5.20;;;;;;;25.95;51.80;96598.09;2084307;28;20394;-69
2023/10/03 10:01:06;;;;;;;10.48;5.57;;;;;;;25.90;51.85;96595.94;2082027;28;20205;-69
2023/10/03 10:02:12;;;;;;;9.30;5.03;;;;;;;25.81;52.42;96607.59;2079003;28;20205;-69
2023/10/03 10:03:26;;;;;;;9.48;4.82;;;;;;;25.61;52.16;96598.22;2078696;28;20232;-70
2023/10/03 10:04:30;;;;;;;12.13;5.10;;;;;;;25.55;52.27;96605.91;2078872;28;20243;-69
2023/10/03 10:05:32;;;;;;;14.65;5.43;;;;;;;25.57;52.80;96593.22;2085812;28;20195;-69
2023/10/03 10:06:41;;;;;;;11.95;5.38;;;;;;;25.55;53.23;96602.41;2085216;28;20257;-69
2023/10/03 10:08:15;;;;;;;9.25;4.18;;;;;;;25.39;53.77;96614.69;2079976;28;20204;-69
2023/10/03 10:09:29;;;;;;;10.18;4.80;;;;;;;25.30;53.56;96598.78;2065210;28;20260;-69
2023/10/03 10:10:33;;;;;;;12.27;5.97;;;;;;;25.46;53.91;96600.69;2082687;28;20192;-69
2023/10/03 10:12:12;;;;;;;12.20;5.30;;;;;;;25.40;53.90;96599.50;2082835;28;20751;-69
2023/10/03 10:13:23;;;;;;;8.85;4.82;;;;;;;25.22;54.15;96604.94;2082340;28;20227;-69
2023/10/03 10:14:28;;;;;;;13.20;4.80;;;;;;;25.18;54.29;96609.78;2076896;28;20287;-69
2023/10/03 10:15:30;;;;;;;11.20;5.18;;;;;;;25.14;54.07;96599.56;2080991;28;20201;-69
2023/10/03 10:16:32;;;;;;;14.65;5.90;;;;;;;25.33;54.05;96599.31;2081354;28;20205;-69
2023/10/03 10:17:54;;;;;;;11.52;5.55;;;;;;;25.51;53.90;96611.72;2078550;28;20205;-66
2023/10/03 10:18:57;;;;;;;11.80;4.50;;;;;;;25.59;53.59;96604.56;2082776;28;20251;-69
2023/10/03 10:20:21;;;;;;;11.75;4.88;;;;;;;25.60;53.64;96600.06;2078070;28;20223;-70
2023/10/03 10:21:36;;;;;;;9.75;5.35;;;;;;;25.50;53.63;96600.22;2080663;28;20216;-69
2023/10/03 10:22:58;;;;;;;11.70;5.15;;;;;;;25.46;53.86;96595.34;2077749;28;20227;-69
2023/10/03 10:24:24;;;;;;;9.23;5.30;;;;;;;25.52;54.26;96602.72;2077326;28;20240;-69
2023/10/03 10:25:43;;;;;;;13.10;4.97;;;;;;;25.88;54.00;96605.94;2082477;28;20236;-69
2023/10/03 10:26:49;;;;;;;8.77;4.90;;;;;;;26.01;53.12;96602.78;2081254;28;20203;-69
2023/10/03 10:28:09;;;;;;;11.23;4.57;;;;;;;26.21;53.20;96607.84;2079659;28;20202;-69
2023/10/03 10:29:14;;;;;;;11.23;4.30;;;;;;;26.16;52.66;96604.84;2084684;28;20235;-69
2023/10/03 10:30:15;;;;;;;10.43;5.35;;;;;;;26.00;52.88;96608.28;2080377;28;20204;-69
2023/10/03 10:31:21;;;;;;;8.00;4.70;;;;;;;26.19;52.88;96605.31;2080375;28;20241;-69
2023/10/03 10:32:24;;;;;;;10.88;4.75;;;;;;;26.18;53.27;96603.66;2081259;28;20200;-69
2023/10/03 10:33:27;;;;;;;8.23;5.07;;;;;;;26.15;53.03;96611.19;2078752;28;20233;-69
2023/10/03 10:34:40;;;;;;;10.45;5.25;;;;;;;26.29;52.74;96613.16;2081164;28;20629;-69
2023/10/03 10:35:55;;;;;;;13.02;5.47;;;;;;;26.49;52.84;96615.50;2082903;28;20208;-69
2023/10/03 10:37:09;;;;;;;12.52;5.75;;;;;;;26.38;53.03;96614.81;2081149;28;20320;-69
2023/10/03 10:38:12;;;;;;;10.23;4.72;;;;;;;26.16;51.96;96610.19;2080152;28;20304;-69
2023/10/03 10:39:14;;;;;;;13.13;5.57;;;;;;;25.95;52.38;96624.00;2077102;28;20233;-69
2023/10/03 10:40:17;;;;;;;12.32;4.88;;;;;;;25.84;52.93;96617.97;2083328;28;20614;-69
2023/10/03 10:42:25;;;;;;;12.02;5.75;;;;;;;25.80;52.58;96622.00;2080853;28;20196;-70
2023/10/03 10:43:28;;;;;;;9.68;4.55;;;;;;;25.74;52.78;96617.31;2082596;28;20239;-69
2023/10/03 10:44:30;;;;;;;12.55;5.57;;;;;;;25.74;53.05;96614.63;2081869;28;20200;-69
2023/10/03 10:45:37;;;;;;;7.97;4.68;;;;;;;25.82;52.76;96617.31;2085068;28;20201;-70
2023/10/03 10:46:46;;;;;;;8.60;4.90;;;;;;;25.77;52.69;96616.13;2084322;28;20199;-70
2023/10/03 10:47:50;;;;;;;8.02;5.00;;;;;;;25.70;52.83;96615.94;2081278;28;20245;-69
2023/10/03 10:48:52;;;;;;;10.85;4.80;;;;;;;25.64;52.88;96616.63;2077955;28;20194;-69
2023/10/03 10:49:55;;;;;;;10.13;5.40;;;;;;;25.61;53.34;96616.94;2082263;28;20546;-70
2023/10/03 10:51:17;;;;;;;11.05;4.82;;;;;;;25.84;53.37;96620.66;2084902;28;20283;-69
2023/10/03 10:52:21;;;;;;;8.52;4.63;;;;;;;25.84;52.70;96611.78;2082458;28;20211;-70
2023/10/03 10:53:38;;;;;;;14.18;5.47;;;;;;;25.72;53.44;96609.44;2082086;28;20707;-69
2023/10/03 10:54:42;;;;;;;10.63;5.05;;;;;;;25.68;53.55;96620.63;2083193;28;20279;-70
2023/10/03 10:55:44;;;;;;;15.73;5.55;;;;;;;25.48;53.16;96622.75;2081294;28;20201;-69
2023/10/03 10:56:46;;;;;;;15.55;5.97;;;;;;;25.38;53.03;96615.72;2081322;28;20242;-70
2023/10/03 10:58:02;;;;;;;8.98;5.20;;;;;;;25.39;53.29;96617.38;2080959;28;20197;-69
2023/10/03 10:59:10;;;;;;;11.23;5.22;;;;;;;25.38;53.27;96618.38;2079131;28;20234;-69
2023/10/03 11:00:22;;;;;;;9.10;5.05;;;;;;;25.28;53.26;96620.34;2078064;28;20189;-69
2023/10/03 11:01:24;;;;;;;9.00;4.43;;;;;;;25.36;53.53;96612.34;2082217;28;20201;-70
2023/10/03 11:02:26;;;;;;;9.98;4.93;;;;;;;25.21;53.39;96622.78;2079486;28;20659;-69
2023/10/03 11:03:28;;;;;;;10.18;5.47;;;;;;;25.28;53.41;96617.66;2078515;28;20221;-69
2023/10/03 11:04:33;;;;;;;13.40;5.35;;;;;;;25.45;53.25;96621.25;2083096;28;20284;-70
2023/10/03 11:05:45;;;;;;;12.55;4.93;;;;;;;25.54;53.06;96624.78;2079954;28;20885;-70
2023/10/03 11:06:52;;;;;;;10.15;5.00;;;;;;;25.48;53.23;96620.06;2079539;28;20258;-70
2023/10/03 11:07:56;;;;;;;12.38;5.05;;;;;;;25.59;53.18;96619.78;2075803;28;20229;-70
2023/10/03 11:08:58;;;;;;;13.68;4.85;;;;;;;25.71;52.56;96617.63;2076358;28;20190;-69
2023/10/03 11:10:06;;;;;;;11.80;6.47;;;;;;;25.63;52.85;96617.63;2076815;28;20242;-69
2023/10/03 11:11:35;;;;;;;11.85;4.82;;;;;;;25.43;53.36;96613.41;2076952;28;20201;-70
2023/10/03 11:12:37;;;;;;;12.77;5.22;;;;;;;25.52;53.39;96622.28;2078206;28;20249;-69
2023/10/03 11:14:05;;;;;;;9.98;5.05;;;;;;;25.40;53.05;96629.72;2079210;28;20197;-69
2023/10/03 11:15:12;;;;;;;11.00;5.47;;;;;;;25.43;53.31;96625.91;2078080;28;20201;-70
2023/10/03 11:16:21;;;;;;;11.82;5.32;;;;;;;25.58;53.00;96628.78;2081349;28;20722;-70
2023/10/03 11:17:25;;;;;;;6.65;4.18;;;;;;;25.51;52.93;96623.25;2079941;28;20197;-70
2023/10/03 11:18:31;;;;;;;9.15;4.63;;;;;;;25.60;52.35;96629.47;2085333;28;20248;-69
2023/10/03 11:19:33;;;;;;;12.15;5.28;;;;;;;25.77;52.22;96626.84;2084011;28;20231;-70
2023/10/03 11:20:35;;;;;;;21.17;5.60;;;;;;;25.92;52.00;96630.53;2079393;28;20201;-70
2023/10/03 11:21:37;;;;;;;9.05;4.80;;;;;;;26.12;51.72;96627.56;2080159;28;20742;-70
2023/10/03 11:22:38;;;;;;;10.88;4.93;;;;;;;26.41;51.02;96624.38;2075079;28;20198;-69
2023/10/03 11:23:40;;;;;;;11.15;5.50;;;;;;;26.68;50.90;96619.66;2075596;28;20197;-70
2023/10/03 11:24:42;;;;;;;9.73;4.63;;;;;;;26.76;50.39;96622.34;2081269;28;20292;-70
2023/10/03 11:26:05;;;;;;;10.40;5.50;;;;;;;26.57;50.46;96626.19;2082044;28;20244;-70
2023/10/03 11:27:07;;;;;;;11.80;5.18;;;;;;;26.39;50.81;96632.56;2080317;28;20201;-70
2023/10/03 11:28:09;;;;;;;12.95;4.70;;;;;;;26.00;51.58;96621.66;2081504;28;20287;-70
2023/10/03 11:29:11;;;;;;;12.73;4.53;;;;;;;25.60;52.08;96624.13;2082508;28;20197;-70
2023/10/03 11:30:19;;;;;;;14.57;4.80;;;;;;;25.45;52.64;96626.59;2084188;28;20190;-70
2023/10/03 11:31:21;;;;;;;13.85;5.57;;;;;;;25.45;52.70;96625.75;2083567;28;20203;-70
2023/10/03 11:32:30;;;;;;;10.00;5.10;;;;;;;25.51;52.85;96619.75;2082298;28;20223;-71
2023/10/03 11:33:43;;;;;;;11.98;4.93;;;;;;;25.56;52.35;96628.09;2080118;28;20233;-69
2023/10/03 11:34:48;;;;;;;9.32;4.60;;;;;;;25.75;52.27;96633.19;2080147;28;20205;-70
2023/10/03 11:35:54;;;;;;;12.57;5.07;;;;;;;26.12;51.49;96635.56;2081255;28;20192;-70
2023/10/03 11:36:55;;;;;;;9.13;4.50;;;;;;;26.41;51.17;96635.09;2079667;28;20359;-70
2023/10/03 11:38:05;;;;;;;11.30;4.90;;;;;;;26.01;51.84;96639.41;2078470;28;20229;-70
2023/10/03 11:39:08;;;;;;;11.45;4.80;;;;;;;25.65;52.61;96640.50;2081630;28;20196;-70
2023/10/03 11:40:16;;;;;;;12.13;4.90;;;;;;;25.78;52.70;96647.22;2077374;28;20231;-70
2023/10/03 11:41:30;;;;;;;10.30;5.05;;;;;;;25.77;52.20;96634.84;2081704;28;20198;-70
2023/10/03 11:42:32;;;;;;;9.95;5.32;;;;;;;25.92;52.27;96636.69;2082298;28;20192;-70